createdAt,value
2018-08-25T00:00:55.388Z,15.90
2018-08-25T00:03:31.361Z,15.90
2018-08-25T00:05:59.817Z,15.80
2018-08-25T00:08:28.280Z,15.80
2018-08-25T00:11:01.016Z,15.80
2018-08-25T00:13:29.473Z,15.80
2018-08-25T00:16:01.774Z,15.80
2018-08-25T00:18:30.251Z,15.70
2018-08-25T00:20:58.743Z,15.70
2018-08-25T00:23:31.260Z,15.60
2018-08-25T00:26:00.530Z,15.70
2018-08-25T00:28:33.008Z,15.60
2018-08-25T00:31:06.843Z,15.50
2018-08-25T00:33:38.449Z,15.50
2018-08-25T00:36:06.944Z,15.40
2018-08-25T00:38:35.381Z,15.40
2018-08-25T00:41:11.589Z,15.30
2018-08-25T00:43:40.123Z,15.30
2018-08-25T00:46:11.630Z,15.30
2018-08-25T00:48:40.082Z,15.20
2018-08-25T00:51:08.610Z,15.20
2018-08-25T00:53:41.041Z,15.10
2018-08-25T00:56:09.533Z,15.10
2018-08-25T00:58:41.949Z,15.10
2018-08-25T01:01:10.416Z,15.10
2018-08-25T01:03:47.705Z,15.10
2018-08-25T01:06:16.922Z,15.10
2018-08-25T01:08:50.134Z,15.10
2018-08-25T01:11:18.584Z,15.00
2018-08-25T01:13:50.961Z,15.00
2018-08-25T01:16:19.401Z,15.00
2018-08-25T01:18:51.824Z,14.90
2018-08-25T01:21:20.322Z,14.90
2018-08-25T01:23:48.776Z,14.80
2018-08-25T01:26:20.461Z,14.70
2018-08-25T01:28:48.936Z,14.70
2018-08-25T01:31:17.413Z,14.60
2018-08-25T01:34:05.394Z,14.60
2018-08-25T01:36:33.877Z,14.60
2018-08-25T01:39:02.323Z,14.50
2018-08-25T01:41:34.804Z,14.50
2018-08-25T01:44:03.261Z,14.50
2018-08-25T01:46:31.681Z,14.40
2018-08-25T01:49:03.440Z,14.30
2018-08-25T01:51:31.888Z,14.30
2018-08-25T01:54:00.314Z,14.20
2018-08-25T01:56:32.894Z,14.20
2018-08-25T01:59:01.344Z,14.10
2018-08-25T02:01:33.847Z,14.10
2018-08-25T02:04:05.413Z,14.10
2018-08-25T02:06:37.376Z,14.00
2018-08-25T02:09:09.201Z,14.00
2018-08-25T02:11:41.917Z,13.90
2018-08-25T02:14:11.075Z,13.90
2018-08-25T02:16:43.689Z,13.80
2018-08-25T02:19:12.134Z,13.70
2018-08-25T02:21:40.570Z,13.70
2018-08-25T02:24:12.316Z,13.70
2018-08-25T02:26:40.753Z,13.60
2018-08-25T02:29:09.227Z,13.60
2018-08-25T02:31:41.780Z,13.50
2018-08-25T02:34:10.210Z,13.50
2018-08-25T02:36:38.670Z,13.40
2018-08-25T02:39:13.993Z,13.40
2018-08-25T02:41:43.268Z,13.30
2018-08-25T02:44:15.769Z,13.30
2018-08-25T02:46:44.225Z,13.30
2018-08-25T02:49:12.987Z,13.20
2018-08-25T02:51:44.754Z,13.30
2018-08-25T02:54:13.292Z,13.30
2018-08-25T02:56:45.256Z,13.40
2018-08-25T02:59:13.722Z,13.50
2018-08-25T03:01:47.074Z,13.60
2018-08-25T03:04:18.790Z,13.60
2018-08-25T03:06:50.657Z,13.50
2018-08-25T03:09:19.120Z,13.60
2018-08-25T03:11:47.676Z,13.60
2018-08-25T03:14:19.298Z,13.70
2018-08-25T03:16:47.760Z,13.80
2018-08-25T03:19:16.224Z,13.80
2018-08-25T03:21:47.924Z,13.80
2018-08-25T03:24:16.456Z,13.80
2018-08-25T03:26:44.939Z,13.80
2018-08-25T03:29:16.467Z,13.70
2018-08-25T03:31:44.905Z,13.70
2018-08-25T03:34:13.431Z,13.70
2018-08-25T03:36:46.153Z,13.70
2018-08-25T03:39:14.590Z,13.80
2018-08-25T03:41:50.443Z,13.80
2018-08-25T03:44:18.923Z,13.70
2018-08-25T03:46:50.487Z,13.80
2018-08-25T03:49:18.911Z,13.70
2018-08-25T03:51:47.366Z,13.70
2018-08-25T03:54:19.946Z,13.70
2018-08-25T03:56:48.499Z,13.60
2018-08-25T03:59:21.082Z,13.60
2018-08-25T04:01:49.520Z,13.60
2018-08-25T04:04:25.344Z,13.60
2018-08-25T04:06:53.819Z,13.60
2018-08-25T04:09:22.283Z,13.60
2018-08-25T04:11:54.888Z,13.60
2018-08-25T04:14:23.371Z,13.60
2018-08-25T04:16:51.817Z,13.60
2018-08-25T04:19:26.201Z,13.60
2018-08-25T04:21:54.996Z,13.60
2018-08-25T04:24:27.897Z,13.50
2018-08-25T04:26:56.332Z,13.50
2018-08-25T04:29:24.795Z,13.50
2018-08-25T04:31:56.608Z,13.50
2018-08-25T04:34:25.053Z,13.50
2018-08-25T04:36:53.533Z,13.50
2018-08-25T04:39:26.036Z,13.50
2018-08-25T04:41:54.604Z,13.50
2018-08-25T04:44:26.882Z,13.50
2018-08-25T04:46:55.388Z,13.60
2018-08-25T04:49:23.912Z,13.60
2018-08-25T04:51:56.463Z,13.60
2018-08-25T04:54:24.926Z,13.60
2018-08-25T04:56:53.423Z,13.60
2018-08-25T04:59:25.912Z,13.70
2018-08-25T05:01:54.421Z,13.60
2018-08-25T05:04:30.438Z,13.60
2018-08-25T05:06:58.885Z,13.70
2018-08-25T05:09:27.370Z,13.70
2018-08-25T05:12:03.581Z,13.70
2018-08-25T05:14:32.040Z,13.70
2018-08-25T05:17:03.533Z,13.70
2018-08-25T05:19:32.001Z,13.80
2018-08-25T05:22:00.486Z,13.80
2018-08-25T05:24:33.091Z,13.80
2018-08-25T05:27:01.533Z,13.80
2018-08-25T05:29:33.948Z,13.80
2018-08-25T05:32:02.439Z,13.90
2018-08-25T05:34:30.872Z,13.90
2018-08-25T05:37:02.511Z,13.90
2018-08-25T05:39:30.992Z,14.00
2018-08-25T05:42:03.625Z,14.00
2018-08-25T05:44:32.151Z,14.10
2018-08-25T05:47:05.211Z,14.10
2018-08-25T05:49:33.757Z,14.10
2018-08-25T05:52:06.055Z,14.20
2018-08-25T05:54:34.619Z,14.30
2018-08-25T05:57:06.923Z,14.30
2018-08-25T05:59:35.467Z,14.40
2018-08-25T06:02:04.069Z,14.40
2018-08-25T06:04:40.061Z,14.50
2018-08-25T06:07:08.625Z,14.60
2018-08-25T06:09:40.936Z,14.70
2018-08-25T06:12:09.479Z,14.80
2018-08-25T06:14:41.898Z,14.90
2018-08-25T06:17:10.474Z,15.00
2018-08-25T06:19:38.947Z,15.20
2018-08-25T06:22:10.435Z,15.30
2018-08-25T06:24:38.955Z,15.40
2018-08-25T06:27:07.488Z,15.50
2018-08-25T06:29:40.042Z,15.60
2018-08-25T06:32:08.526Z,15.60
2018-08-25T06:34:37.027Z,15.70
2018-08-25T06:37:08.591Z,15.80
2018-08-25T06:39:37.065Z,15.90
2018-08-25T06:42:09.381Z,15.90
2018-08-25T06:44:37.929Z,16.10
2018-08-25T06:47:06.443Z,16.20
2018-08-25T06:49:42.613Z,16.40
2018-08-25T06:52:11.228Z,16.60
2018-08-25T06:54:43.393Z,16.70
2018-08-25T06:57:11.911Z,16.90
2018-08-25T06:59:40.450Z,16.90
2018-08-25T07:02:12.904Z,17.00
2018-08-25T07:04:44.896Z,17.30
2018-08-25T07:07:16.525Z,17.50
2018-08-25T07:09:44.984Z,17.80
2018-08-25T07:12:13.455Z,17.70
2018-08-25T07:14:46.079Z,17.70
2018-08-25T07:17:14.538Z,17.80
2018-08-25T07:19:43.080Z,17.90
2018-08-25T07:22:14.603Z,18.10
2018-08-25T07:24:43.050Z,18.20
2018-08-25T07:27:11.538Z,18.20
2018-08-25T07:29:44.149Z,18.10
2018-08-25T07:32:12.673Z,18.10
2018-08-25T07:34:45.014Z,18.20
2018-08-25T07:37:13.566Z,18.10
2018-08-25T07:39:45.864Z,18.30
2018-08-25T07:42:14.435Z,18.30
2018-08-25T07:44:43.003Z,18.50
2018-08-25T07:47:14.503Z,18.60
2018-08-25T07:49:43.042Z,18.70
2018-08-25T07:52:11.540Z,18.60
2018-08-25T07:54:44.099Z,18.90
2018-08-25T07:57:12.977Z,19.10
2018-08-25T07:59:44.909Z,19.10
2018-08-25T08:02:13.372Z,19.00
2018-08-25T08:04:53.133Z,19.20
2018-08-25T08:07:24.859Z,19.30
2018-08-25T08:09:56.579Z,19.20
2018-08-25T08:12:25.130Z,19.80
2018-08-25T08:14:53.762Z,19.80
2018-08-25T08:17:26.121Z,20.00
2018-08-25T08:19:54.698Z,20.20
2018-08-25T08:22:26.978Z,20.50
2018-08-25T08:24:55.425Z,20.90
2018-08-25T08:27:27.814Z,20.60
2018-08-25T08:29:56.262Z,20.60
2018-08-25T08:32:24.722Z,21.20
2018-08-25T08:34:56.475Z,21.60
2018-08-25T08:37:24.933Z,21.80
2018-08-25T08:39:53.415Z,21.30
2018-08-25T08:42:25.177Z,21.30
2018-08-25T08:44:53.584Z,21.60
2018-08-25T08:47:22.180Z,22.10
2018-08-25T08:49:53.703Z,22.60
2018-08-25T08:52:22.178Z,22.70
2018-08-25T08:54:50.672Z,22.70
2018-08-25T08:57:26.750Z,23.10
2018-08-25T08:59:55.251Z,23.60
2018-08-25T09:02:27.624Z,23.40
2018-08-25T09:04:56.217Z,23.10
2018-08-25T09:10:30.728Z,23.40
2018-08-25T09:13:14.545Z,23.50
2018-08-25T09:16:00.663Z,23.50
2018-08-25T09:18:44.049Z,23.40
2018-08-25T09:21:32.313Z,23.80
2018-08-25T09:24:16.120Z,24.50
2018-08-25T09:27:07.065Z,24.30
2018-08-25T09:29:58.443Z,24.90
2018-08-25T09:32:41.844Z,24.20
2018-08-25T09:35:28.801Z,24.70
2018-08-25T09:38:12.509Z,25.00
2018-08-25T09:40:58.697Z,24.90
2018-08-25T09:43:42.382Z,24.50
2018-08-25T09:46:30.391Z,25.20
2018-08-25T09:49:13.894Z,26.00
2018-08-25T09:52:01.992Z,25.80
2018-08-25T09:54:45.975Z,26.30
2018-08-25T09:57:32.888Z,26.00
2018-08-25T10:00:16.086Z,26.70
2018-08-25T10:03:07.617Z,25.80
2018-08-25T10:05:52.499Z,26.10
2018-08-25T10:08:38.975Z,25.90
2018-08-25T10:11:22.208Z,26.50
2018-08-25T10:14:08.758Z,26.10
2018-08-25T10:16:52.142Z,26.50
2018-08-25T10:19:38.711Z,25.90
2018-08-25T10:22:22.526Z,25.20
2018-08-25T10:25:08.534Z,24.60
2018-08-25T10:27:51.939Z,24.30
2018-08-25T10:30:39.388Z,25.00
2018-08-25T10:33:22.825Z,25.20
2018-08-25T10:36:10.140Z,25.70
2018-08-25T10:38:53.573Z,26.50
2018-08-25T10:41:40.098Z,26.70
2018-08-25T10:44:23.432Z,26.70
2018-08-25T10:47:09.852Z,26.70
2018-08-25T10:49:53.384Z,27.00
2018-08-25T10:52:40.717Z,27.20
2018-08-25T10:55:24.325Z,27.50
2018-08-25T10:58:10.551Z,27.40
2018-08-25T11:00:54.207Z,28.20
2018-08-25T11:03:44.994Z,28.40
2018-08-25T11:06:29.165Z,27.80
2018-08-25T11:09:19.395Z,27.20
2018-08-25T11:12:03.159Z,26.70
2018-08-25T11:14:51.103Z,26.60
2018-08-25T11:17:38.198Z,27.70
2018-08-25T11:20:24.625Z,27.60
2018-08-25T11:23:08.071Z,26.40
2018-08-25T11:25:55.440Z,25.20
2018-08-25T11:28:39.271Z,24.40
2018-08-25T11:31:29.826Z,24.80
2018-08-25T11:34:13.909Z,23.70
2018-08-25T11:37:00.580Z,24.00
2018-08-25T11:39:44.710Z,24.10
2018-08-25T11:42:32.248Z,24.40
2018-08-25T11:45:16.421Z,24.50
2018-08-25T11:48:03.068Z,24.30
2018-08-25T11:50:47.087Z,24.40
2018-08-25T11:53:33.809Z,23.70
2018-08-25T11:56:16.938Z,23.70
2018-08-25T11:59:03.776Z,24.30
2018-08-25T12:01:47.821Z,25.20
2018-08-25T12:04:35.335Z,25.80
2018-08-25T12:07:19.478Z,26.20
2018-08-25T12:10:08.854Z,25.90
2018-08-25T12:12:52.530Z,26.00
2018-08-25T12:15:46.951Z,26.00
2018-08-25T12:18:38.328Z,25.80
2018-08-25T12:21:34.436Z,25.90
2018-08-25T12:24:25.669Z,25.20
2018-08-25T12:27:19.632Z,25.30
2018-08-25T12:30:11.085Z,25.20
2018-08-25T12:33:05.910Z,24.70
2018-08-25T12:35:56.758Z,24.70
2018-08-25T12:38:51.113Z,24.40
2018-08-25T12:41:42.747Z,24.20
2018-08-25T12:44:37.391Z,23.90
2018-08-25T12:47:28.749Z,23.90
2018-08-25T12:50:22.665Z,23.90
2018-08-25T12:53:13.989Z,23.70
2018-08-25T12:56:08.854Z,23.40
2018-08-25T12:59:00.180Z,23.10
2018-08-25T13:01:55.061Z,23.10
2018-08-25T13:04:46.055Z,22.90
2018-08-25T13:07:41.308Z,22.40
2018-08-25T13:10:32.368Z,21.50
2018-08-25T13:13:28.409Z,21.00
2018-08-25T13:16:19.171Z,20.50
2018-08-25T13:19:15.231Z,20.30
2018-08-25T13:22:06.916Z,19.80
2018-08-25T13:25:03.471Z,19.40
2018-08-25T13:27:54.714Z,19.20
2018-08-25T13:30:52.359Z,19.20
2018-08-25T13:33:45.196Z,18.80
2018-08-25T13:36:41.272Z,18.80
2018-08-25T13:39:32.436Z,18.80
2018-08-25T13:42:28.412Z,18.90
2018-08-25T13:45:20.311Z,18.60
2018-08-25T13:48:16.371Z,18.60
2018-08-25T13:51:09.077Z,18.60
2018-08-25T13:54:05.306Z,18.40
2018-08-25T13:56:59.937Z,18.10
2018-08-25T13:59:57.755Z,18.00
2018-08-25T14:02:48.562Z,17.80
2018-08-25T14:05:44.058Z,17.50
2018-08-25T14:08:41.925Z,17.60
2018-08-25T14:11:37.521Z,17.40
2018-08-25T14:14:29.054Z,17.20
2018-08-25T14:17:24.602Z,17.20
2018-08-25T14:20:16.019Z,17.00
2018-08-25T14:23:14.983Z,17.10
2018-08-25T14:26:10.210Z,17.00
2018-08-25T14:29:01.510Z,17.20
2018-08-25T14:31:57.323Z,17.40
2018-08-25T14:34:48.848Z,17.30
2018-08-25T14:37:44.460Z,17.30
2018-08-25T14:40:35.940Z,17.30
2018-08-25T14:43:31.441Z,17.30
2018-08-25T14:46:22.515Z,17.30
2018-08-25T14:49:16.829Z,17.30
2018-08-25T14:52:08.324Z,17.20
2018-08-25T14:55:03.012Z,17.40
2018-08-25T14:57:53.783Z,17.30
2018-08-25T15:00:49.436Z,17.20
2018-08-25T15:03:40.934Z,17.40
2018-08-25T15:06:36.313Z,17.50
2018-08-25T15:09:27.796Z,17.80
2018-08-25T15:12:23.428Z,17.60
2018-08-25T15:15:14.913Z,17.70
2018-08-25T15:18:10.575Z,17.70
2018-08-25T15:21:01.987Z,17.60
2018-08-25T15:23:56.771Z,17.80
2018-08-25T15:26:47.593Z,17.80
2018-08-25T15:29:42.054Z,17.80
2018-08-25T15:32:33.728Z,17.90
2018-08-25T15:35:28.237Z,17.90
2018-08-25T15:38:19.775Z,17.80
2018-08-25T15:41:15.339Z,17.80
2018-08-25T15:44:06.279Z,17.90
2018-08-25T15:47:02.462Z,17.80
2018-08-25T15:49:53.647Z,17.80
2018-08-25T15:52:49.440Z,17.80
2018-08-25T15:55:40.729Z,17.70
2018-08-25T15:58:36.584Z,17.70
2018-08-25T16:01:27.476Z,17.90
2018-08-25T16:04:21.826Z,18.00
2018-08-25T16:07:12.905Z,17.90
2018-08-25T16:10:08.181Z,17.90
2018-08-25T16:12:59.042Z,17.90
2018-08-25T16:15:54.234Z,18.10
2018-08-25T16:18:45.178Z,18.00
2018-08-25T16:21:41.356Z,18.00
2018-08-25T16:24:32.303Z,18.00
2018-08-25T16:27:27.543Z,17.90
2018-08-25T16:30:19.550Z,18.00
2018-08-25T16:33:15.573Z,18.10
2018-08-25T16:36:06.981Z,17.90
2018-08-25T16:39:01.839Z,17.70
2018-08-25T16:41:53.093Z,17.40
2018-08-25T16:44:47.987Z,17.30
2018-08-25T16:47:39.064Z,17.20
2018-08-25T16:50:33.278Z,17.10
2018-08-25T16:53:24.245Z,17.00
2018-08-25T16:56:20.375Z,17.00
2018-08-25T16:59:11.428Z,16.90
2018-08-25T17:02:07.587Z,16.90
2018-08-25T17:04:58.848Z,17.00
2018-08-25T17:07:54.463Z,16.90
2018-08-25T17:10:45.521Z,16.80
2018-08-25T17:13:39.864Z,16.70
2018-08-25T17:16:31.347Z,16.60
2018-08-25T17:19:26.057Z,16.70
2018-08-25T17:22:17.771Z,16.60
2018-08-25T17:25:12.193Z,16.60
2018-08-25T17:28:03.843Z,16.60
2018-08-25T17:30:59.238Z,16.50
2018-08-25T17:33:50.637Z,16.40
2018-08-25T17:36:46.377Z,16.40
2018-08-25T17:39:37.971Z,16.30
2018-08-25T17:42:32.570Z,16.30
2018-08-25T17:45:23.524Z,16.20
2018-08-25T17:48:18.762Z,16.10
2018-08-25T17:51:09.900Z,16.10
2018-08-25T17:54:04.960Z,16.00
2018-08-25T17:56:56.200Z,16.00
2018-08-25T17:59:51.143Z,16.00
2018-08-25T18:02:42.057Z,15.90
2018-08-25T18:05:37.328Z,15.80
2018-08-25T18:08:28.723Z,15.70
2018-08-25T18:11:24.451Z,15.70
2018-08-25T18:14:15.651Z,15.60
2018-08-25T18:17:11.581Z,15.60
2018-08-25T18:20:02.630Z,15.50
2018-08-25T18:22:56.852Z,15.40
2018-08-25T18:25:48.364Z,15.30
2018-08-25T18:28:43.051Z,15.30
2018-08-25T18:31:34.044Z,15.20
2018-08-25T18:34:29.248Z,15.20
2018-08-25T18:37:21.457Z,15.10
2018-08-25T18:40:16.261Z,15.10
2018-08-25T18:43:07.510Z,15.00
2018-08-25T18:46:02.559Z,14.90
2018-08-25T18:48:54.130Z,14.80
2018-08-25T18:51:49.542Z,14.80
2018-08-25T18:54:40.670Z,14.80
2018-08-25T18:57:36.689Z,14.70
2018-08-25T19:00:28.168Z,14.70
2018-08-25T19:03:22.896Z,14.70
2018-08-25T19:06:14.211Z,14.60
2018-08-25T19:09:09.087Z,14.60
2018-08-25T19:12:00.528Z,14.50
2018-08-25T19:14:55.292Z,14.40
2018-08-25T19:17:46.562Z,14.30
2018-08-25T19:20:42.457Z,14.20
2018-08-25T19:23:33.568Z,14.20
2018-08-25T19:26:32.310Z,14.10
2018-08-25T19:29:23.204Z,14.10
2018-08-25T19:32:18.412Z,14.10
2018-08-25T19:35:09.201Z,14.00
2018-08-25T19:38:04.566Z,13.90
2018-08-25T19:40:56.154Z,13.80
2018-08-25T19:43:51.714Z,13.80
2018-08-25T19:46:42.980Z,13.70
2018-08-25T19:49:37.876Z,13.70
2018-08-25T19:52:20.920Z,13.60
2018-08-25T19:54:52.352Z,13.50
2018-08-25T19:57:20.874Z,13.40
2018-08-25T19:59:49.342Z,13.30
2018-08-25T20:02:22.817Z,13.20
2018-08-25T20:04:51.349Z,13.10
2018-08-25T20:07:23.688Z,13.00
2018-08-25T20:09:52.104Z,12.90
2018-08-25T20:12:24.570Z,12.90
2018-08-25T20:14:53.108Z,12.70
2018-08-25T20:17:21.586Z,12.70
2018-08-25T20:19:54.023Z,12.70
2018-08-25T20:22:22.511Z,12.70
2018-08-25T20:24:51.034Z,12.60
2018-08-25T20:27:23.486Z,12.70
2018-08-25T20:29:52.010Z,12.60
2018-08-25T20:32:20.475Z,12.60
2018-08-25T20:34:52.169Z,12.60
2018-08-25T20:37:20.634Z,12.70
2018-08-25T20:39:49.085Z,12.60
2018-08-25T20:42:21.616Z,12.50
2018-08-25T20:44:50.110Z,12.70
2018-08-25T20:47:22.585Z,12.70
2018-08-25T20:49:51.244Z,12.70
2018-08-25T20:52:27.027Z,12.60
2018-08-25T20:54:55.484Z,12.60
2018-08-25T20:57:23.970Z,12.60
2018-08-25T20:59:56.451Z,12.60
2018-08-25T21:02:24.941Z,12.60
2018-08-25T21:04:57.368Z,12.70
2018-08-25T21:07:25.984Z,12.60
2018-08-25T21:09:54.455Z,12.70
2018-08-25T21:12:26.055Z,12.80
2018-08-25T21:14:54.591Z,12.80
2018-08-25T21:17:23.065Z,12.70
2018-08-25T21:19:55.507Z,12.80
2018-08-25T21:22:23.965Z,12.80
2018-08-25T21:24:52.423Z,12.90
2018-08-25T21:27:24.147Z,12.80
2018-08-25T21:29:52.614Z,12.80
2018-08-25T21:32:21.072Z,12.70
2018-08-25T21:34:57.166Z,12.60
2018-08-25T21:37:25.643Z,12.40
2018-08-25T21:39:57.126Z,12.30
2018-08-25T21:42:25.566Z,12.30
2018-08-25T21:44:54.119Z,12.30
2018-08-25T21:47:26.646Z,12.30
2018-08-25T21:49:55.087Z,12.20
2018-08-25T21:52:31.136Z,12.10
2018-08-25T21:54:59.587Z,12.10
2018-08-25T21:57:28.026Z,12.10
2018-08-25T22:00:00.652Z,12.00
2018-08-25T22:02:29.120Z,12.10
2018-08-25T22:05:01.522Z,12.20
2018-08-25T22:07:29.960Z,12.10
2018-08-25T22:10:02.388Z,11.90
2018-08-25T22:12:30.873Z,11.80
2018-08-25T22:14:59.317Z,11.90
2018-08-25T22:17:31.370Z,11.80
2018-08-25T22:19:59.815Z,11.90
2018-08-25T22:22:31.975Z,11.90
2018-08-25T22:25:00.393Z,11.80
2018-08-25T22:27:28.829Z,11.80
2018-08-25T22:30:00.504Z,11.90
2018-08-25T22:32:28.970Z,11.90
2018-08-25T22:34:57.426Z,12.10
2018-08-25T22:37:29.113Z,12.10
2018-08-25T22:39:57.576Z,12.10
2018-08-25T22:42:26.017Z,12.10
2018-08-25T22:44:58.710Z,12.00
2018-08-25T22:47:27.159Z,11.90
2018-08-25T22:49:59.456Z,11.90
2018-08-25T22:52:36.538Z,12.00
2018-08-25T22:55:12.173Z,12.10
2018-08-25T22:57:40.597Z,12.00
2018-08-25T23:00:12.116Z,12.00
2018-08-25T23:02:41.300Z,11.90
2018-08-25T23:05:13.067Z,11.90
2018-08-25T23:07:41.511Z,11.80
2018-08-25T23:10:10.000Z,11.80
2018-08-25T23:12:42.516Z,11.70
2018-08-25T23:15:10.991Z,11.80
2018-08-25T23:17:39.442Z,11.80
2018-08-25T23:20:11.140Z,11.80
2018-08-25T23:22:39.906Z,11.80
2018-08-25T23:25:12.019Z,11.80
2018-08-25T23:27:40.509Z,11.70
2018-08-25T23:30:08.993Z,11.70
2018-08-25T23:32:41.453Z,11.70
2018-08-25T23:35:09.878Z,11.70
2018-08-25T23:37:38.317Z,11.70
2018-08-25T23:40:10.082Z,11.80
2018-08-25T23:42:38.547Z,11.80
2018-08-25T23:45:07.017Z,11.70
2018-08-25T23:47:39.561Z,11.70
2018-08-25T23:50:08.020Z,11.60
2018-08-25T23:52:44.075Z,11.70
2018-08-25T23:55:12.517Z,11.60
2018-08-25T23:57:40.969Z,11.70
